Flight Track Log - Related Links

Times and Time Zones

All times are in EDT time to prevent confusion due to time zone crossing. See the N929SR flight status page for this flight to view local times or setup timezone preferences in your user account.


Time Position Orientation Groundspeed Altitude Reporting Facility
EDT Latitude Longitude Course Direction KTS MPH feet Rate Location/Type
Mon 05:49:26 PM 28.0700 -82.5208 328° Northwest 253 291 5,000  Level Jacksonville Center
Mon 05:50:26 PM 28.1350 -82.5653 329° Northwest 260 299 8,100 3,300 Climbing Jacksonville Center
Mon 05:51:26 PM 28.2017 -82.6194 324° Northwest 272 313 11,600 3,500 Climbing Jacksonville Center
Mon 05:52:26 PM 28.2708 -82.6733 326° Northwest 295 339 15,100 3,250 Climbing Jacksonville Center
Mon 05:53:26 PM 28.3439 -82.7297 326° Northwest 306 352 18,100 3,000 Climbing Jacksonville Center
Mon 05:54:00 PM 28.6382 -82.8510 328° Northwest  Level FlightAware Approximate
Mon 05:54:26 PM 28.4169 -82.7864 326° Northwest 311 358 21,100  Level Jacksonville Center
Mon 05:56:00 PM 28.5797 -82.8093 328° Northwest  Level FlightAware Approximate
Mon 05:56:26 PM 28.6175 -82.8381 328° Northwest 359 413 25,100  Level Jacksonville Center
Mon 05:57:26 PM 28.6967 -82.8950 328° Northwest 367 422 26,900 2,100 Climbing Jacksonville Center
Mon 05:58:26 PM 28.7886 -82.9589 329° Northwest 374 430 29,300 2,450 Climbing Jacksonville Center
Mon 05:59:26 PM 28.8761 -83.0231 327° Northwest 379 436 31,800 2,300 Climbing Jacksonville Center
Mon 06:00:26 PM 28.9658 -83.0847 329° Northwest 379 436 33,900 2,000 Climbing Jacksonville Center
Mon 06:01:26 PM 29.0575 -83.1467 329° Northwest 379 436 35,800 1,100 Climbing Jacksonville Center
Mon 06:02:26 PM 29.1514 -83.2136 328° Northwest 384 442 36,100 1,100 Climbing Jacksonville Center
Mon 06:03:26 PM 29.2472 -83.2806 329° Northwest 397 457 38,000 975 Climbing Jacksonville Center
Mon 06:05:00 PM 29.3926 -83.3767 334° Northwest  Level FlightAware Approximate
Mon 06:06:26 PM 29.5283 -83.4772 334° Northwest 392 451 40,000  Level Jacksonville Center
Mon 06:08:26 PM 29.7319 -83.6244 328° Northwest 427 491 40,000  Level Jacksonville Center
Mon 06:10:00 PM 29.7647 -83.8180 281° West  Level FlightAware Approximate
Mon 06:10:26 PM 29.8622 -83.8169 281° West 388 447 40,000  Level Jacksonville Center
Mon 06:12:00 PM 29.8640 -84.0143 271° West  Level FlightAware Approximate
Mon 06:12:26 PM 29.9167 -84.0500 271° West 376 433 40,000  Level Jacksonville Center
Mon 06:14:26 PM 29.9750 -84.2928 286° West 376 433 40,000  Level Jacksonville Center
Mon 06:15:26 PM 30.0028 -84.4108 285° West 376 433 40,000  Level Jacksonville Center
Mon 06:16:26 PM 30.0328 -84.5264 287° West 376 433 40,000  Level Jacksonville Center
Mon 06:17:26 PM 30.0603 -84.6444 285° West 376 433 40,000  Level Jacksonville Center
Mon 06:18:26 PM 30.0881 -84.7578 286° West 376 433 40,000  Level Jacksonville Center
Mon 06:19:26 PM 30.1133 -84.8711 284° West 376 433 40,000  Level Jacksonville Center
Mon 06:21:00 PM 30.1364 -85.0660 278° West  Level FlightAware Approximate
Mon 06:22:26 PM 30.1914 -85.1994 278° West 376 433 40,000  Level Jacksonville Center
Mon 06:23:26 PM 30.2186 -85.3133 285° West 376 433 40,000  Level Jacksonville Center
Mon 06:24:26 PM 30.2453 -85.4414 284° West 381 438 40,000  Level Jacksonville Center
Mon 06:25:26 PM 30.2725 -85.5406 288° West 369 425 40,000  Level Jacksonville Center
Mon 06:27:00 PM 30.2523 -85.7362 263° West  Level FlightAware Approximate
Mon 06:27:26 PM 30.3239 -85.7706 263° West 369 425 40,000  Level Jacksonville Center
Mon 06:29:26 PM 30.3747 -86.0033 284° West 369 425 40,000  Level Jacksonville Center
Mon 06:30:26 PM 30.4031 -86.1175 286° West 369 425 40,000  Level Jacksonville Center
Mon 06:32:26 PM 30.4536 -86.3481 284° West 375 432 40,000  Level Jacksonville Center
Mon 06:34:02 PM 30.4922 -86.5325 284° West 375 432 40,000  Level Jacksonville Center
Mon 06:35:02 PM 30.5203 -86.6444 286° West 375 432 40,000  Level Jacksonville Center
Mon 06:36:02 PM 30.5461 -86.7614 284° West 375 432 40,000  Level Jacksonville Center
Mon 06:37:02 PM 30.5717 -86.8758 285° West 375 432 40,000  Level Jacksonville Center
Mon 06:39:23 PM 30.6281 -87.1394 284° West 370 426 40,000  Level Houston Center
Mon 06:40:25 PM 30.6581 -87.2794 284° West 372 428 40,000  Level Houston Center
Mon 06:41:27 PM 30.6833 -87.3944 284° West 369 425 40,000  Level Houston Center
Mon 06:42:29 PM 30.7078 -87.5111 284° West 371 427 40,000  Level Houston Center
Mon 06:43:31 PM 30.7322 -87.6272 284° West 371 427 40,000  Level Houston Center
Mon 06:44:33 PM 30.7581 -87.7564 283° West 370 426 40,000  Level Houston Center
Mon 06:45:35 PM 30.7839 -87.8733 284° West 374 430 40,000  Level Houston Center
Mon 06:46:37 PM 30.8081 -87.9906 284° West 373 429 40,000  Level Houston Center
Mon 06:47:39 PM 30.8319 -88.1089 283° West 376 433 40,000  Level Houston Center
Mon 06:48:41 PM 30.8572 -88.2281 284° West 381 438 40,000  Level Houston Center
Mon 06:49:43 PM 30.8869 -88.3706 284° West 380 437 40,000  Level Houston Center
Mon 06:51:00 PM 30.9006 -88.5319 276° West  Level FlightAware Approximate
Mon 06:51:47 PM 30.9364 -88.6081 276° West 378 435 40,000  Level Houston Center
Mon 06:52:49 PM 30.9589 -88.7264 283° West 381 438 40,000  Level Houston Center
Mon 06:53:51 PM 30.9833 -88.8456 283° West 379 436 40,000  Level Houston Center
Mon 06:54:53 PM 31.0072 -88.9628 283° West 373 429 40,000  Level Houston Center
Mon 06:55:55 PM 31.0353 -89.1044 283° West 375 432 40,000  Level Houston Center
Mon 06:57:00 PM 30.9989 -89.2347 252° West  Level FlightAware Approximate
Mon 06:57:58 PM 31.0836 -89.3419 252° West 376 433 40,000  Level Houston Center
Mon 06:59:00 PM 31.1075 -89.4603 283° West 375 432 40,000  Level Houston Center
Mon 07:00:02 PM 31.1311 -89.5803 283° West 377 434 40,000  Level Houston Center
Mon 07:01:04 PM 31.1586 -89.7217 283° West 373 429 40,000  Level Houston Center
Mon 07:02:06 PM 31.1819 -89.8397 283° West 372 428 40,000  Level Houston Center
Mon 07:04:09 PM 31.2269 -90.0764 283° West 373 429 40,000  Level Houston Center
Mon 07:05:11 PM 31.2494 -90.1964 282° West 378 435 40,000  Level Houston Center
Mon 07:06:13 PM 31.2725 -90.3142 283° West 375 432 40,000  Level Houston Center
Mon 07:07:15 PM 31.3000 -90.4561 283° West 374 430 40,000  Level Houston Center
Mon 07:08:17 PM 31.3208 -90.5750 282° West 375 432 40,000  Level Houston Center
Mon 07:09:18 PM 31.3450 -90.6947 283° West 378 435 40,000  Level Houston Center
Mon 07:10:20 PM 31.3669 -90.8164 282° West 382 440 40,000  Level Houston Center
Mon 07:11:22 PM 31.3906 -90.9378 283° West 382 440 40,000  Level Houston Center
Mon 07:12:24 PM 31.4119 -91.0614 281° West 386 444 40,000  Level Houston Center
Mon 07:13:26 PM 31.4369 -91.2042 282° West 387 445 40,000  Level Houston Center
Mon 07:15:00 PM 31.4538 -91.4010 276° West  Level FlightAware Approximate
Mon 07:15:29 PM 31.4819 -91.4497 276° West 385 443 40,000  Level Houston Center
Mon 07:16:31 PM 31.5025 -91.5719 281° West 383 441 40,000  Level Houston Center
Mon 07:17:33 PM 31.5253 -91.6947 282° West 385 443 40,000  Level Houston Center
Mon 07:19:00 PM 31.5221 -91.8779 269° West  Level FlightAware Approximate
Mon 07:20:38 PM 31.5922 -92.0781 281° West 386 444 40,000  Level Houston Center
Mon 07:21:40 PM 31.6133 -92.2031 281° West 390 449 40,000  Level Houston Center
Mon 07:24:04 PM 31.6714 -92.5097 283° West 398 458 40,000  Level Fort Worth Center
Mon 07:24:45 PM 31.6819 -92.5978 278° West 387 445 40,000  Level Houston Center
Mon 07:26:00 PM 31.6818 -92.7431 281° West  Level Estimated
Mon 07:26:49 PM 31.7236 -92.8450 281° West 384 442 40,000  Level Houston Center
Mon 07:28:52 PM 31.7675 -93.1114 281° West 383 441 40,000  Level Houston Center
Mon 07:29:54 PM 31.7889 -93.2336 282° West 382 440 40,000  Level Houston Center
Mon 07:30:55 PM 31.8100 -93.3606 281° West 376 433 40,000  Level Houston Center
Mon 07:31:57 PM 31.8286 -93.4806 280° West 374 430 40,000  Level Houston Center
Mon 07:32:59 PM 31.8639 -93.5953 290° West 373 429 40,000  Level Houston Center
Mon 07:34:01 PM 31.9022 -93.7081 292° West 373 429 40,000  Level Houston Center
Mon 07:35:04 PM 31.9414 -93.8417 289° West 371 427 40,000  Level Fort Worth Center
Mon 07:36:04 PM 31.9758 -93.9553 290° West 371 427 40,000  Level Fort Worth Center
Mon 07:37:04 PM 32.0147 -94.0714 292° West 371 427 40,000  Level Fort Worth Center
Mon 07:38:04 PM 32.0489 -94.1856 289° West 371 427 40,000  Level Fort Worth Center
Mon 07:40:11 PM 32.1192 -94.4236 289° West 381 438 40,000  Level Houston Center
Mon 07:41:04 PM 32.1556 -94.5400 290° West 388 447 40,000  Level Fort Worth Center
Mon 07:42:04 PM 32.1917 -94.6592 290° West 388 447 40,000  Level Fort Worth Center
Mon 07:44:04 PM 32.2506 -94.8783 288° West 383 441 40,000  Level Fort Worth Center
Mon 07:45:04 PM 32.2992 -95.0169 293° West 389 448 40,000  Level Fort Worth Center
Mon 07:46:04 PM 32.3306 -95.1417 287° West 395 455 40,000  Level Fort Worth Center
Mon 07:47:04 PM 32.3681 -95.2564 291° West 395 455 40,000  Level Fort Worth Center
Mon 07:48:04 PM 32.4017 -95.3808 288° West 395 455 40,000  Level Fort Worth Center
Mon 07:49:04 PM 32.4389 -95.5033 290° West 395 455 40,000  Level Fort Worth Center
Mon 07:51:04 PM 32.5028 -95.7333 288° West 400 460 40,000  Level Fort Worth Center
Mon 07:52:04 PM 32.5422 -95.8683 289° West 400 460 40,000  Level Fort Worth Center
Mon 07:54:04 PM 32.6117 -96.1136 289° West 400 460 40,000  Level Fort Worth Center
Mon 07:55:04 PM 32.6442 -96.2242 289° West 400 460 40,000  Level Fort Worth Center
Mon 07:56:04 PM 32.6828 -96.3619 288° West 400 460 40,000  Level Fort Worth Center
Mon 07:58:04 PM 32.7514 -96.6131 288° West 400 460 40,000  Level Fort Worth Center
Mon 07:59:04 PM 32.7836 -96.7239 289° West 400 460 40,000  Level Fort Worth Center
Mon 08:01:04 PM 32.8536 -96.9708 289° West 394 453 40,000  Level Fort Worth Center
Mon 08:02:04 PM 32.8914 -97.1092 288° West 402 463 40,000  Level Fort Worth Center
Mon 08:03:04 PM 32.9231 -97.2203 289° West 396 456 40,000  Level Fort Worth Center
Mon 08:05:04 PM 32.9942 -97.4678 289° West 401 461 40,000  Level Fort Worth Center
Mon 08:07:04 PM 33.0625 -97.7356 287° West 406 467 40,000  Level Fort Worth Center
Mon 08:08:04 PM 33.0956 -97.8597 288° West 394 453 40,000  Level Fort Worth Center
Mon 08:09:04 PM 33.1283 -97.9839 288° West 399 459 40,000  Level Fort Worth Center
Mon 08:10:04 PM 33.1611 -98.1083 287° West 399 459 40,000  Level Fort Worth Center
Mon 08:11:04 PM 33.1939 -98.2328 288° West 405 466 40,000  Level Fort Worth Center
Mon 08:12:04 PM 33.2283 -98.3597 288° West 398 458 40,000  Level Fort Worth Center
Mon 08:13:04 PM 33.2569 -98.4692 287° West 403 464 40,000  Level Fort Worth Center
Mon 08:14:04 PM 33.2911 -98.5939 288° West 398 458 40,000  Level Fort Worth Center
Mon 08:16:04 PM 33.3553 -98.8458 287° West 403 464 40,000  Level Fort Worth Center
Mon 08:18:04 PM 33.4211 -99.0958 288° West 403 464 40,000  Level Fort Worth Center
Mon 08:19:04 PM 33.4528 -99.2208 287° West 403 464 40,000  Level Fort Worth Center
Mon 08:20:04 PM 33.4842 -99.3461 287° West 403 464 40,000  Level Fort Worth Center
Mon 08:22:04 PM 33.5489 -99.5992 287° West 403 464 40,000  Level Fort Worth Center
Mon 08:23:04 PM 33.5800 -99.7247 287° West 403 464 40,000  Level Fort Worth Center
Mon 08:24:04 PM 33.6111 -99.8503 287° West 403 464 40,000  Level Fort Worth Center
Mon 08:26:20 PM 33.6789 -100.1325 286° West 397 457 40,000  Level Albuquerque Center
Mon 08:27:04 PM 33.7053 -100.2372 287° West 403 464 40,000  Level Fort Worth Center
Mon 08:28:04 PM 33.7378 -100.3633 287° West 403 464 40,000  Level Fort Worth Center
Mon 08:29:04 PM 33.7681 -100.4917 286° West 403 464 40,000  Level Fort Worth Center
Mon 08:31:28 PM 33.8397 -100.7947 286° West 397 457 40,000  Level Albuquerque Center
Mon 08:32:04 PM 33.8583 -100.8725 286° West 403 464 40,000  Level Fort Worth Center
Mon 08:34:04 PM 33.8886 -101.1289 278° West 388 447 40,000  Level Fort Worth Center
Mon 08:35:04 PM 33.8967 -101.2769 274° West 388 447 40,000  Level Fort Worth Center
Mon 08:36:35 PM 33.8928 -101.4683 269° West 392 451 40,000  Level Albuquerque Center
Mon 08:37:04 PM 33.8925 -101.5394 270° West 390 449 40,000  Level Fort Worth Center
Mon 08:38:04 PM 33.8886 -101.6569 268° West 401 461 40,000  Level Fort Worth Center
Mon 08:39:39 PM 33.8769 -101.8717 266° West 405 466 40,000  Level Albuquerque Center
Mon 08:40:04 PM 33.8764 -101.9439 269° West 406 467 40,000  Level Fort Worth Center
Mon 08:41:04 PM 33.8719 -102.0664 268° West 406 467 40,000  Level Fort Worth Center
Mon 08:42:04 PM 33.8558 -102.2131 263° West 406 467 40,000  Level Fort Worth Center
Mon 08:43:04 PM 33.8450 -102.3322 264° West 406 467 40,000  Level Fort Worth Center
Mon 08:44:04 PM 33.8267 -102.4789 261° West 401 461 40,000  Level Fort Worth Center
Mon 08:46:04 PM 33.7789 -102.7258 257° West 390 449 40,000  Level Fort Worth Center
Mon 08:47:52 PM 33.7400 -102.9328 257° West 388 447 40,000  Level Albuquerque Center
Mon 08:48:53 PM 33.7275 -103.0606 263° West 388 447 40,000  Level Albuquerque Center
Mon 08:49:55 PM 33.7539 -103.2086 282° West 383 441 40,000  Level Albuquerque Center
Mon 08:50:56 PM 33.7914 -103.3328 290° West 395 455 40,000 -341 Level Albuquerque Center
Mon 08:51:58 PM 33.8314 -103.4508 292° West 390 449 39,300 -976 Descending Albuquerque Center
Mon 08:52:59 PM 33.8700 -103.5686 292° West 382 440 38,000 -634 Descending Albuquerque Center
Mon 08:54:01 PM 33.9144 -103.7000 292° West 381 438 38,000  Level Albuquerque Center
Mon 08:55:02 PM 33.9539 -103.8194 292° West 384 442 38,000  Level Albuquerque Center
Mon 08:56:03 PM 33.9919 -103.9361 292° West 378 435 38,000  Level Albuquerque Center
Mon 08:57:05 PM 34.0264 -104.0447 291° West 375 432 38,000  Level Albuquerque Center
Mon 08:58:06 PM 34.0658 -104.1636 292° West 378 435 38,000  Level Albuquerque Center
Mon 08:59:09 PM 34.1111 -104.3056 291° West 382 440 38,000  Level Albuquerque Center
Mon 09:00:10 PM 34.1517 -104.4289 292° West 389 448 38,000  Level Albuquerque Center
Mon 09:01:11 PM 34.1906 -104.5514 291° West 387 445 38,000  Level Albuquerque Center
Mon 09:02:13 PM 34.2286 -104.6719 291° West 383 441 38,000  Level Albuquerque Center
Mon 09:03:14 PM 34.2681 -104.7939 291° West 383 441 38,000  Level Albuquerque Center
Mon 09:05:17 PM 34.3467 -105.0414 291° West 389 448 38,000  Level Albuquerque Center
Mon 09:06:18 PM 34.3856 -105.1647 291° West 389 448 38,000  Level Albuquerque Center
Mon 09:08:21 PM 34.4617 -105.4094 291° West 385 443 38,000  Level Albuquerque Center
Mon 09:09:22 PM 34.5006 -105.5319 291° West 385 443 38,000  Level Albuquerque Center
Mon 09:10:24 PM 34.5386 -105.6567 290° West 388 447 38,000  Level Albuquerque Center
Mon 09:12:00 PM 34.5956 -105.8507 290° West  Level FlightAware Approximate
Mon 09:13:27 PM 34.6528 -106.0311 290° West 391 450 38,000  Level Albuquerque Center
Mon 09:15:00 PM 34.7061 -106.2201 289° West  Level FlightAware Approximate
Mon 09:16:31 PM 34.7686 -106.4178 289° West 395 455 38,000  Level Albuquerque Center
Mon 09:17:32 PM 34.8078 -106.5447 291° West 398 458 38,000  Level Albuquerque Center
Mon 09:18:34 PM 34.8494 -106.6867 290° West 398 458 38,000  Level Albuquerque Center
Mon 09:19:35 PM 34.8853 -106.8089 290° West 400 460 38,000  Level Albuquerque Center
Mon 09:21:00 PM 34.9345 -106.9822 289° West  Level FlightAware Approximate
Mon 09:21:37 PM 34.9628 -107.0669 289° West 393 452 38,000  Level Albuquerque Center
Mon 09:22:39 PM 34.9972 -107.1806 290° West 399 459 38,000  Level Albuquerque Center
Mon 09:23:40 PM 35.0331 -107.3114 289° West 404 465 38,000  Level Albuquerque Center
Mon 09:24:41 PM 35.0769 -107.4631 290° West 397 457 38,000  Level Albuquerque Center
Mon 09:25:43 PM 35.1158 -107.5975 290° West 398 458 38,000  Level Albuquerque Center
Mon 09:26:44 PM 35.1378 -107.7247 282° West 403 464 38,000  Level Albuquerque Center
Mon 09:27:45 PM 35.1375 -107.8536 270° West 398 458 38,000  Level Albuquerque Center
Mon 09:28:46 PM 35.1408 -108.0017 272° West 391 450 38,000  Level Albuquerque Center
Mon 09:29:48 PM 35.1419 -108.1264 271° West 386 444 38,000  Level Albuquerque Center
Mon 09:30:49 PM 35.1447 -108.2514 272° West 384 442 38,000  Level Albuquerque Center
Mon 09:31:50 PM 35.1472 -108.4017 271° West 392 451 38,000  Level Albuquerque Center
Mon 09:32:52 PM 35.1486 -108.5300 271° West 394 453 38,000  Level Albuquerque Center
Mon 09:33:53 PM 35.1508 -108.6778 271° West 390 449 38,000  Level Albuquerque Center
Mon 09:34:54 PM 35.1522 -108.8053 271° West 390 449 38,000  Level Albuquerque Center
Mon 09:35:56 PM 35.1536 -108.9344 271° West 394 453 38,000  Level Albuquerque Center
Mon 09:36:57 PM 35.1553 -109.0886 271° West 402 463 38,000  Level Albuquerque Center
Mon 09:37:58 PM 35.1569 -109.2203 271° West 404 465 38,000  Level Albuquerque Center
Mon 09:39:00 PM 35.1572 -109.3494 270° West 399 459 38,000  Level Albuquerque Center
Mon 09:40:01 PM 35.1583 -109.4967 271° West 391 450 38,000  Level Albuquerque Center
Mon 09:41:02 PM 35.1586 -109.6231 270° West 388 447 38,000  Level Albuquerque Center
Mon 09:42:04 PM 35.1581 -109.7722 270° West 391 450 38,000  Level Albuquerque Center
Mon 09:44:06 PM 35.1614 -110.0331 271° West 397 457 38,000  Level Albuquerque Center
Mon 09:45:07 PM 35.1597 -110.1778 269° West 386 444 38,000  Level Albuquerque Center
Mon 09:46:09 PM 35.1583 -110.3003 269° West 380 437 38,000  Level Albuquerque Center
Mon 09:47:10 PM 35.1567 -110.4281 269° West 386 444 38,000 -148 Level Albuquerque Center
Mon 09:48:11 PM 35.1342 -110.5744 259° West 401 461 37,700 -689 Descending Albuquerque Center
Mon 09:49:12 PM 35.0861 -110.6867 242° Southwest 393 452 36,600 -1,415 Descending Albuquerque Center
Mon 09:50:14 PM 35.0406 -110.7925 242° Southwest 380 437 34,800 -1,805 Descending Albuquerque Center
Mon 09:51:15 PM 34.9922 -110.9064 243° Southwest 380 437 32,900 -2,066 Descending Albuquerque Center
Mon 09:52:16 PM 34.9322 -111.0494 243° Southwest 394 453 30,600 -2,262 Descending Albuquerque Center
Mon 09:53:17 PM 34.8550 -111.1533 228° Southwest 410 472 28,300 -2,195 Descending Albuquerque Center
Mon 09:54:19 PM 34.7722 -111.2503 246° West 414 476 26,100 -2,146 Descending Albuquerque Center
Mon 09:55:00 PM 34.7806 -111.3555 246° West  Level FlightAware Approximate
Mon 09:55:20 PM 34.6917 -111.3469 225° Southwest 410 472 23,900  Level Albuquerque Center
Mon 09:56:21 PM 34.6169 -111.4350 224° Southwest 386 444 21,800 -1,902 Descending Albuquerque Center
Mon 09:57:23 PM 34.5458 -111.5186 224° Southwest 367 422 20,000 -1,854 Descending Albuquerque Center
Mon 09:58:24 PM 34.4767 -111.5994 224° Southwest 351 404 18,000 -1,918 Descending Albuquerque Center
Mon 09:59:25 PM 34.4053 -111.6831 224° Southwest 356 410 16,100 -1,761 Descending Albuquerque Center
Mon 10:01:00 PM 34.3203 -111.8584 240° Southwest  Level FlightAware Approximate
Mon 10:01:28 PM 34.2731 -111.8364 240° Southwest 299 344 12,600  Level Albuquerque Center
Mon 10:02:29 PM 34.2217 -111.8972 224° Southwest 272 313 11,200 -836 Descending Albuquerque Center
Mon 10:03:30 PM 34.1539 -111.9192 195° South 277 319 10,900 -1,415 Descending Albuquerque Center
Mon 10:04:32 PM 34.0811 -111.8933 164° South 278 320 8,300 -978 Descending Albuquerque Center
Mon 10:06:34 PM 33.9333 -111.8667 171° South 246 283 7,900 -475 Descending Phoenix TRACON
Mon 10:07:29 PM 33.8667 -111.8500 168° South 224 258 6,900 -634 Descending Phoenix TRACON
Mon 10:08:37 PM 33.8142 -111.8553 185° South 211 243 6,600 -791 Descending Albuquerque Center
Mon 10:09:38 PM 33.7625 -111.8644 188° South 199 229 5,200 -1,279 Descending Albuquerque Center
Mon 10:10:39 PM 33.7128 -111.8744 189° South 189 217 4,000 -1,122 Descending Albuquerque Center
Mon 10:11:41 PM 33.6703 -111.8797 186° South 173 199 2,900 -1,073 Descending Albuquerque Center
Mon 10:12:42 PM 33.6344 -111.8992 204° Southwest 161 185 1,800 -1,082 Descending Albuquerque Center
Mon 10:14:00 PM 33.6229 -111.9105 180° South  Level Estimated

Login

Don't have an account? Register now (free) for customized features, flight alerts, and more!